Time;durP1;ratioP1;P1;durP2;ratioP2;P2;SDS_P1;SDS_P2;PMS_P1;PMS_P2;Temp;Humidity;BMP_temperature;BMP_pressure;BME280_temperature;BME280_humidity;BME280_pressure;Samples;Min_cycle;Max_cycle;Signal;HPM_P1;HPM_P2
2021/03/22 00:02:24;;;;;;;4.97;4.47;;;8.30;26.90;;;;;;4995147;28;20344;-64
2021/03/22 00:04:50;;;;;;;5.43;4.63;;;8.30;27.00;;;;;;5006692;28;20511;-64
2021/03/22 00:07:16;;;;;;;5.87;5.20;;;8.30;27.00;;;;;;4997780;28;20038;-64
2021/03/22 00:09:41;;;;;;;5.87;4.73;;;8.30;26.80;;;;;;5002321;28;20039;-65
2021/03/22 00:12:07;;;;;;;6.47;4.57;;;8.30;26.60;;;;;;5004739;28;20054;-65
2021/03/22 00:14:33;;;;;;;5.77;4.73;;;8.30;26.70;;;;;;5007127;28;20045;-65
2021/03/22 00:16:59;;;;;;;6.10;5.03;;;8.20;26.80;;;;;;5000468;28;20526;-65
2021/03/22 00:19:24;;;;;;;7.97;5.10;;;8.30;26.70;;;;;;5012546;28;20136;-63
2021/03/22 00:21:50;;;;;;;7.47;5.27;;;8.30;26.40;;;;;;5002780;28;20042;-65
2021/03/22 00:24:15;;;;;;;8.23;5.63;;;8.30;27.00;;;;;;5004730;28;20096;-65
2021/03/22 00:26:41;;;;;;;6.00;5.07;;;8.30;26.70;;;;;;5002539;28;20030;-65
2021/03/22 00:29:06;;;;;;;7.23;5.10;;;8.20;26.90;;;;;;5000522;28;20492;-65
2021/03/22 00:31:32;;;;;;;5.60;5.10;;;8.20;26.60;;;;;;5005613;28;20057;-65
2021/03/22 00:33:58;;;;;;;6.03;4.57;;;8.30;27.20;;;;;;4998563;28;20495;-65
2021/03/22 00:36:24;;;;;;;6.47;5.00;;;8.30;26.50;;;;;;5007538;28;20041;-59
2021/03/22 00:38:50;;;;;;;6.00;4.80;;;8.30;26.60;;;;;;4998808;28;20057;-65
2021/03/22 00:41:15;;;;;;;6.80;5.87;;;8.30;26.50;;;;;;5008352;28;20053;-65
2021/03/22 00:43:41;;;;;;;7.73;5.87;;;8.30;27.00;;;;;;5001498;28;20451;-64
2021/03/22 00:46:06;;;;;;;7.20;5.17;;;8.20;27.40;;;;;;5000562;28;20373;-65
2021/03/22 00:48:34;;;;;;;8.07;5.83;;;8.20;27.30;;;;;;4997492;28;20057;-64
2021/03/22 00:51:03;;;;;;;8.77;5.30;;;8.20;27.30;;;;;;5006040;28;20413;-64
2021/03/22 00:53:29;;;;;;;6.83;4.97;;;8.10;26.80;;;;;;4998322;28;20038;-64
2021/03/22 00:55:55;;;;;;;6.97;4.50;;;8.20;26.80;;;;;;5008242;28;20054;-64
2021/03/22 00:58:20;;;;;;;9.00;5.70;;;8.20;26.90;;;;;;5004037;28;20052;-64
2021/03/22 01:00:49;;;;;;;8.10;5.10;;;8.10;26.50;;;;;;4999308;28;20042;-65
2021/03/22 01:03:23;;;;;;;7.77;6.03;;;8.10;27.00;;;;;;5009833;28;20493;-64
2021/03/22 01:05:49;;;;;;;7.40;5.27;;;8.10;27.00;;;;;;4998604;28;20048;-65
2021/03/22 01:08:16;;;;;;;6.97;4.97;;;8.10;26.90;;;;;;5006184;28;20459;-64
2021/03/22 01:10:54;;;;;;;6.30;5.17;;;8.10;27.00;;;;;;5006692;28;20165;-64
2021/03/22 01:13:21;;;;;;;6.50;5.60;;;8.20;27.00;;;;;;5004743;28;20054;-65
2021/03/22 01:15:47;;;;;;;6.93;5.30;;;8.20;27.10;;;;;;4993842;28;20333;-65
2021/03/22 01:18:16;;;;;;;8.00;5.33;;;8.10;27.20;;;;;;5004057;28;20056;-65
2021/03/22 01:20:49;;;;;;;7.43;5.10;;;8.10;27.00;;;;;;5002890;28;20048;-65
2021/03/22 01:23:15;;;;;;;7.47;5.37;;;8.10;27.00;;;;;;5001690;28;20060;-64
2021/03/22 01:25:41;;;;;;;7.60;5.17;;;8.10;26.70;;;;;;5004941;28;20042;-64
2021/03/22 01:28:10;;;;;;;9.90;5.87;;;8.10;27.20;;;;;;5009592;28;20030;-65
2021/03/22 01:30:44;;;;;;;9.43;4.33;;;8.10;27.60;;;;;;4999820;28;20042;-65
2021/03/22 01:33:12;;;;;;;6.73;4.53;;;8.10;27.00;;;;;;5008892;28;20042;-65
2021/03/22 01:35:38;;;;;;;7.07;4.57;;;8.10;26.90;;;;;;4999457;28;20026;-65
2021/03/22 01:38:05;;;;;;;6.87;4.03;;;8.10;27.20;;;;;;4998480;28;20056;-65
2021/03/22 01:40:42;;;;;;;5.80;4.27;;;8.10;26.60;;;;;;4996249;28;20510;-64
2021/03/22 01:43:19;;;;;;;5.23;4.33;;;8.10;26.90;;;;;;5009593;28;20088;-64
2021/03/22 01:45:45;;;;;;;6.70;4.50;;;8.10;27.10;;;;;;4999540;28;20042;-65
2021/03/22 01:48:10;;;;;;;4.57;4.17;;;8.10;27.40;;;;;;4998331;28;20121;-64
2021/03/22 01:50:36;;;;;;;4.50;4.10;;;8.10;27.30;;;;;;5005445;28;20072;-65
2021/03/22 01:53:02;;;;;;;4.77;4.30;;;8.10;27.00;;;;;;5006565;28;20037;-65
2021/03/22 01:55:28;;;;;;;4.67;4.13;;;8.10;27.10;;;;;;5001755;28;20034;-64
2021/03/22 01:57:54;;;;;;;6.90;4.50;;;8.10;27.70;;;;;;5006204;28;20050;-58
2021/03/22 02:00:34;;;;;;;7.43;4.93;;;8.10;27.10;;;;;;5000603;28;20529;-66
2021/03/22 02:03:06;;;;;;;5.23;4.73;;;8.10;27.30;;;;;;4978859;28;20045;-65
2021/03/22 02:05:34;;;;;;;5.27;4.20;;;8.10;28.00;;;;;;5005184;28;20081;-66
2021/03/22 02:08:05;;;;;;;5.27;4.70;;;8.10;27.00;;;;;;4999430;28;20046;-66
2021/03/22 02:10:33;;;;;;;4.83;4.10;;;8.10;27.60;;;;;;5002678;28;20038;-65
2021/03/22 02:12:58;;;;;;;5.73;4.83;;;8.20;27.60;;;;;;4993154;28;20041;-66
2021/03/22 02:15:25;;;;;;;5.17;4.50;;;8.20;27.30;;;;;;4999281;28;20209;-64
2021/03/22 02:18:06;;;;;;;5.13;4.50;;;8.30;27.10;;;;;;5000606;28;20042;-67
2021/03/22 02:20:59;;;;;;;8.70;4.77;;;8.20;27.30;;;;;;4973906;28;20045;-66
2021/03/22 02:23:56;;;;;;;5.50;4.63;;;8.30;26.70;;;;;;4998521;28;20104;-66
2021/03/22 02:26:48;;;;;;;6.50;4.77;;;8.30;27.00;;;;;;4997918;28;20045;-66
2021/03/22 02:29:29;;;;;;;7.03;4.80;;;8.20;27.80;;;;;;4989588;28;20045;-66
2021/03/22 02:32:29;;;;;;;8.80;5.77;;;8.20;26.90;;;;;;4996734;28;20426;-65
2021/03/22 02:35:20;;;;;;;5.63;4.63;;;8.30;27.20;;;;;;5004273;28;20046;-65
2021/03/22 02:38:12;;;;;;;5.63;4.70;;;8.20;27.60;;;;;;4997838;28;20120;-66
2021/03/22 02:40:42;;;;;;;5.03;4.33;;;8.20;27.90;;;;;;4977250;28;20511;-67
2021/03/22 02:43:08;;;;;;;5.70;5.20;;;8.20;27.80;;;;;;4999513;28;20403;-66
2021/03/22 02:45:37;;;;;;;5.37;4.57;;;8.10;26.90;;;;;;4997666;28;20033;-66
2021/03/22 02:48:04;;;;;;;5.57;4.97;;;8.30;27.10;;;;;;4995559;28;20034;-66
2021/03/22 02:50:38;;;;;;;6.03;4.93;;;8.20;27.10;;;;;;5004881;28;20443;-65
2021/03/22 02:53:28;;;;;;;6.63;5.87;;;8.20;27.10;;;;;;5000926;28;20041;-65
2021/03/22 02:56:39;;;;;;;6.60;5.13;;;8.10;26.90;;;;;;4996953;28;20551;-63
2021/03/22 02:59:21;;;;;;;6.20;5.33;;;8.20;27.40;;;;;;4902690;28;20051;-66
2021/03/22 03:02:08;;;;;;;5.00;4.47;;;8.10;26.40;;;;;;4994400;28;20092;-65
2021/03/22 03:04:36;;;;;;;9.50;5.50;;;8.20;27.50;;;;;;4973723;28;20042;-65
2021/03/22 03:07:09;;;;;;;6.33;5.30;;;8.20;27.60;;;;;;5000503;28;20046;-65
2021/03/22 03:09:39;;;;;;;7.37;4.90;;;8.20;27.20;;;;;;5000196;28;20471;-65
2021/03/22 03:12:12;;;;;;;7.43;5.07;;;8.20;27.30;;;;;;4995748;28;20042;-64
2021/03/22 03:14:38;;;;;;;7.17;5.50;;;8.20;27.70;;;;;;4993892;28;20053;-66
2021/03/22 03:17:04;;;;;;;6.37;5.40;;;8.20;27.80;;;;;;5000241;28;20349;-65
2021/03/22 03:19:30;;;;;;;7.37;5.47;;;8.10;28.10;;;;;;5000716;28;20065;-65
2021/03/22 03:21:55;;;;;;;6.20;5.60;;;8.10;27.90;;;;;;5007847;28;20041;-65
2021/03/22 03:24:21;;;;;;;7.00;5.70;;;8.10;28.20;;;;;;5000917;28;20084;-65
2021/03/22 03:26:46;;;;;;;6.33;5.47;;;8.10;28.10;;;;;;5005139;28;20030;-65
2021/03/22 03:29:12;;;;;;;6.30;5.30;;;8.10;27.80;;;;;;4996274;28;20042;-65
2021/03/22 03:31:37;;;;;;;8.53;5.60;;;8.00;28.10;;;;;;4999365;28;20499;-64
2021/03/22 03:34:05;;;;;;;7.00;5.57;;;8.00;28.20;;;;;;5002714;28;20119;-65
2021/03/22 03:36:31;;;;;;;9.23;6.13;;;8.00;28.30;;;;;;4994236;28;20052;-65
2021/03/22 03:38:57;;;;;;;8.33;5.83;;;8.00;28.50;;;;;;4997854;28;20392;-64
2021/03/22 03:41:22;;;;;;;7.70;6.20;;;8.00;28.50;;;;;;4998153;28;20030;-65
2021/03/22 03:43:48;;;;;;;6.90;6.20;;;8.00;28.60;;;;;;5004709;28;20045;-65
2021/03/22 03:46:13;;;;;;;7.07;6.20;;;7.90;29.30;;;;;;4995354;28;24129;-65
2021/03/22 03:48:39;;;;;;;7.57;5.70;;;7.80;28.90;;;;;;5002761;28;20459;-65
2021/03/22 03:51:05;;;;;;;7.90;6.53;;;7.90;28.80;;;;;;5002424;28;20052;-65
2021/03/22 03:53:31;;;;;;;8.23;6.70;;;7.80;28.70;;;;;;5012274;28;20507;-65
2021/03/22 03:55:58;;;;;;;7.60;6.40;;;7.80;29.20;;;;;;4996860;28;20468;-65
2021/03/22 03:58:24;;;;;;;7.10;6.00;;;7.80;29.80;;;;;;5007232;28;20586;-66
2021/03/22 04:00:49;;;;;;;7.67;5.97;;;7.80;29.40;;;;;;5000908;28;20074;-65
2021/03/22 04:03:22;;;;;;;9.10;6.53;;;7.80;29.70;;;;;;4999777;28;20124;-65
2021/03/22 04:05:54;;;;;;;7.27;6.33;;;7.70;29.80;;;;;;5003562;28;20890;-65
2021/03/22 04:08:20;;;;;;;11.10;7.47;;;7.70;30.40;;;;;;4996670;28;20046;-65
2021/03/22 04:10:46;;;;;;;8.97;7.47;;;7.70;29.80;;;;;;5002435;28;20137;-66
2021/03/22 04:13:12;;;;;;;7.47;6.73;;;7.70;30.00;;;;;;5003208;28;20137;-65
2021/03/22 04:15:37;;;;;;;9.23;7.10;;;7.70;30.30;;;;;;5005564;28;20116;-65
2021/03/22 04:18:03;;;;;;;10.13;7.53;;;7.60;30.00;;;;;;5006294;28;20061;-66
2021/03/22 04:20:29;;;;;;;9.77;7.67;;;7.60;30.30;;;;;;5002099;28;20046;-65
2021/03/22 04:22:55;;;;;;;9.47;7.57;;;7.60;30.20;;;;;;5002636;28;20050;-62
2021/03/22 04:25:20;;;;;;;9.73;7.63;;;7.50;30.40;;;;;;5007602;28;20454;-66
2021/03/22 04:27:46;;;;;;;11.60;7.80;;;7.50;30.20;;;;;;5006001;28;20133;-65
2021/03/22 04:30:12;;;;;;;12.07;8.00;;;7.40;30.10;;;;;;5002562;28;20117;-65
2021/03/22 04:32:38;;;;;;;11.10;8.10;;;7.40;30.60;;;;;;5000615;28;20046;-65
2021/03/22 04:35:04;;;;;;;11.03;8.93;;;7.40;30.50;;;;;;5008515;28;20364;-65
2021/03/22 04:37:30;;;;;;;12.13;8.97;;;7.30;30.70;;;;;;5003532;28;20064;-65
2021/03/22 04:39:56;;;;;;;10.33;8.07;;;7.40;30.70;;;;;;5004098;28;21001;-64
2021/03/22 04:42:21;;;;;;;12.50;9.27;;;7.30;30.60;;;;;;5006670;28;20042;-65
2021/03/22 04:44:47;;;;;;;11.80;9.00;;;7.30;30.90;;;;;;5005363;28;20038;-65
2021/03/22 04:47:12;;;;;;;12.17;9.27;;;7.40;31.30;;;;;;5003856;28;20483;-66
2021/03/22 04:49:38;;;;;;;14.33;10.47;;;7.30;31.70;;;;;;5009818;28;20038;-65
2021/03/22 04:52:04;;;;;;;11.83;9.40;;;7.30;32.10;;;;;;5010198;28;20045;-65
2021/03/22 04:54:29;;;;;;;16.07;9.90;;;7.20;32.00;;;;;;5003837;28;20073;-65
2021/03/22 04:56:55;;;;;;;12.17;9.17;;;7.20;32.00;;;;;;5011349;28;20502;-65
2021/03/22 04:59:21;;;;;;;11.67;9.33;;;7.10;32.00;;;;;;4999501;28;20041;-65
2021/03/22 05:01:46;;;;;;;14.50;9.77;;;7.10;31.80;;;;;;5005316;28;20408;-65
2021/03/22 05:04:12;;;;;;;12.97;9.83;;;7.00;31.80;;;;;;5004969;28;20092;-66
2021/03/22 05:06:37;;;;;;;14.73;9.07;;;7.00;32.60;;;;;;5006693;28;20050;-65
2021/03/22 05:09:03;;;;;;;11.33;9.30;;;7.00;32.60;;;;;;5002959;28;20049;-66
2021/03/22 05:11:29;;;;;;;13.00;9.27;;;7.10;32.40;;;;;;5007364;28;20096;-64
2021/03/22 05:13:54;;;;;;;16.10;9.80;;;7.10;32.60;;;;;;5000523;28;20451;-57
2021/03/22 05:16:20;;;;;;;10.70;8.97;;;7.00;32.60;;;;;;5005981;28;20056;-66
2021/03/22 05:18:46;;;;;;;11.17;9.20;;;6.90;33.00;;;;;;5000113;28;20395;-65
2021/03/22 05:21:11;;;;;;;11.10;9.83;;;6.80;33.30;;;;;;5008955;28;20030;-66
2021/03/22 05:23:39;;;;;;;10.70;8.97;;;6.90;33.40;;;;;;5005538;28;20041;-67
2021/03/22 05:26:06;;;;;;;11.13;8.60;;;6.90;33.40;;;;;;5003267;28;20041;-67
2021/03/22 05:28:34;;;;;;;11.23;8.80;;;7.00;33.20;;;;;;5006316;28;20046;-66
2021/03/22 05:31:00;;;;;;;12.90;7.80;;;7.00;32.90;;;;;;5002019;28;20392;-66
2021/03/22 05:33:26;;;;;;;15.03;9.30;;;7.00;32.60;;;;;;5010365;28;20038;-66
2021/03/22 05:35:54;;;;;;;14.57;9.07;;;7.00;33.30;;;;;;5006642;28;20041;-66
2021/03/22 05:38:20;;;;;;;11.40;8.70;;;7.10;33.10;;;;;;5002004;28;20573;-66
2021/03/22 05:40:51;;;;;;;10.40;8.73;;;7.10;33.60;;;;;;4996938;28;20058;-66
2021/03/22 05:43:41;;;;;;;9.60;8.37;;;7.20;33.50;;;;;;5006503;28;20087;-66
2021/03/22 05:46:15;;;;;;;11.17;8.60;;;7.20;34.00;;;;;;4977278;28;20069;-67
2021/03/22 05:49:11;;;;;;;13.18;9.35;;;7.20;33.70;;;;;;5008556;28;20076;-67
2021/03/22 05:52:03;;;;;;;14.50;9.50;;;7.30;34.40;;;;;;4958755;28;20499;-66
2021/03/22 05:54:57;;;;;;;12.33;9.30;;;7.30;33.90;;;;;;4980593;28;20047;-66
2021/03/22 05:57:56;;;;;;;10.73;9.43;;;7.30;34.00;;;;;;5005611;28;20049;-66
2021/03/22 06:00:43;;;;;;;15.30;9.97;;;7.40;34.10;;;;;;4972816;28;20045;-66
2021/03/22 06:03:18;;;;;;;12.63;9.70;;;7.30;33.90;;;;;;4967944;28;20038;-66
2021/03/22 06:05:46;;;;;;;;;;;7.40;33.80;;;;;;5003101;28;20128;-66
2021/03/22 06:08:37;;;;;;;13.27;9.03;;;7.40;34.10;;;;;;5002353;28;19936;-66
2021/03/22 06:11:21;;;;;;;13.47;10.77;;;7.50;34.00;;;;;;4972212;28;20069;-67
2021/03/22 06:13:49;;;;;;;14.80;10.37;;;7.50;33.70;;;;;;5001134;28;20496;-67
2021/03/22 06:16:35;;;;;;;14.23;10.93;;;7.60;33.70;;;;;;4996727;28;20042;-67
2021/03/22 06:19:08;;;;;;;13.73;9.87;;;7.60;34.70;;;;;;4979715;28;20049;-67
2021/03/22 06:25:29;;;;;;;16.57;10.60;;;7.70;34.50;;;;;;4961336;28;20403;-66
2021/03/22 06:27:59;;;;;;;12.73;10.30;;;7.70;34.80;;;;;;4995171;28;20395;-56
2021/03/22 06:30:25;;;;;;;14.60;10.77;;;7.70;33.80;;;;;;5006838;28;20399;-66
2021/03/22 06:32:55;;;;;;;15.63;10.93;;;7.70;33.70;;;;;;5004974;28;20037;-67
2021/03/22 06:35:24;;;;;;;14.83;10.90;;;7.80;33.90;;;;;;5010267;28;20505;-67
2021/03/22 06:37:50;;;;;;;16.43;11.07;;;7.80;33.90;;;;;;5004016;28;20448;-67
2021/03/22 06:40:24;;;;;;;13.33;10.57;;;7.80;34.00;;;;;;5009084;28;20172;-67
2021/03/22 06:43:18;;;;;;;16.00;11.13;;;7.90;34.30;;;;;;5005049;28;20026;-66
2021/03/22 06:45:52;;;;;;;15.53;10.57;;;7.90;34.30;;;;;;4965016;28;20562;-67
2021/03/22 06:48:28;;;;;;;19.77;11.57;;;7.80;34.10;;;;;;5001867;28;20373;-66
2021/03/22 06:51:15;;;;;;;13.53;10.43;;;7.80;34.00;;;;;;5008462;28;20121;-66
2021/03/22 06:53:45;;;;;;;16.90;11.30;;;7.80;34.00;;;;;;4981522;28;20042;-66
2021/03/22 06:56:19;;;;;;;16.00;10.47;;;7.90;34.00;;;;;;5007893;28;20030;-67
2021/03/22 06:58:47;;;;;;;15.15;11.70;;;7.90;34.30;;;;;;5001114;28;20089;-67
2021/03/22 07:01:29;;;;;;;14.43;10.60;;;8.00;33.90;;;;;;5008717;28;20041;-67
2021/03/22 07:04:13;;;;;;;17.73;11.43;;;8.10;34.20;;;;;;5006171;28;20034;-64
2021/03/22 07:06:39;;;;;;;14.73;11.73;;;8.20;34.20;;;;;;5005354;28;20096;-69
2021/03/22 07:09:04;;;;;;;16.53;11.93;;;8.20;34.00;;;;;;5002437;28;20124;-69
2021/03/22 07:11:30;;;;;;;17.07;11.87;;;8.10;33.90;;;;;;5008047;28;20050;-69
2021/03/22 07:13:57;;;;;;;21.33;12.77;;;8.30;34.00;;;;;;4997991;28;20030;-68
2021/03/22 07:16:26;;;;;;;18.73;12.27;;;8.30;33.70;;;;;;4990849;28;20491;-70
2021/03/22 07:19:19;;;;;;;20.97;12.77;;;8.40;34.40;;;;;;4998239;28;20072;-70
2021/03/22 07:21:58;;;;;;;19.87;12.80;;;8.40;34.40;;;;;;4971078;28;20046;-70
2021/03/22 07:24:48;;;;;;;19.20;13.17;;;8.40;34.60;;;;;;4990723;28;20491;-70
2021/03/22 07:27:38;;;;;;;22.00;12.77;;;8.40;35.10;;;;;;4971178;28;20038;-70
2021/03/22 07:30:06;;;;;;;21.73;13.13;;;8.50;34.70;;;;;;4959158;28;20144;-70
2021/03/22 07:33:02;;;;;;;21.03;12.57;;;8.50;33.90;;;;;;4991953;28;20039;-70
2021/03/22 07:35:45;;;;;;;17.25;12.13;;;8.60;34.60;;;;;;4994407;28;20041;-69
2021/03/22 07:38:38;;;;;;;15.57;11.53;;;8.60;33.40;;;;;;4998141;28;20038;-70
2021/03/22 07:41:14;;;;;;;18.47;12.63;;;8.80;33.90;;;;;;4958521;28;20037;-69
2021/03/22 07:43:51;;;;;;;18.30;12.73;;;8.70;33.30;;;;;;4994595;28;20042;-69
2021/03/22 07:46:33;;;;;;;22.37;13.13;;;8.80;33.40;;;;;;4997298;28;20034;-69
2021/03/22 07:49:09;;;;;;;17.73;12.90;;;8.90;33.90;;;;;;4995023;28;20038;-68
2021/03/22 07:52:05;;;;;;;20.93;12.23;;;9.00;33.40;;;;;;5004431;28;20664;-68
2021/03/22 07:55:08;;;;;;;17.43;12.77;;;9.00;34.30;;;;;;4977119;28;20042;-69
2021/03/22 07:57:48;;;;;;;19.00;12.10;;;9.10;34.20;;;;;;4980231;28;20068;-69
2021/03/22 08:00:39;;;;;;;23.07;12.67;;;9.20;33.90;;;;;;4994833;28;20039;-69
2021/03/22 08:03:12;;;;;;;15.57;11.77;;;9.30;33.70;;;;;;4981135;28;20037;-69
2021/03/22 08:06:10;;;;;;;22.27;12.77;;;9.20;33.40;;;;;;5000223;28;20038;-69
2021/03/22 08:08:44;;;;;;;22.47;12.43;;;9.30;33.80;;;;;;4979221;28;20108;-69
2021/03/22 08:11:37;;;;;;;19.67;12.48;;;9.10;33.10;;;;;;5000121;28;20053;-69
2021/03/22 08:14:09;;;;;;;17.57;12.63;;;9.40;33.40;;;;;;4977677;28;20119;-69
2021/03/22 08:17:07;;;;;;;19.53;12.53;;;9.40;33.20;;;;;;4995262;28;20049;-69
2021/03/22 08:19:40;;;;;;;24.83;13.07;;;9.50;32.60;;;;;;4965540;28;20081;-70
2021/03/22 08:22:28;;;;;;;17.77;13.57;;;9.40;32.90;;;;;;5002654;28;20046;-69
2021/03/22 08:25:27;;;;;;;21.37;12.20;;;9.60;32.30;;;;;;5004557;28;20056;-69
2021/03/22 08:27:57;;;;;;;21.30;13.17;;;9.80;33.00;;;;;;4971798;28;20539;-69
2021/03/22 08:30:47;;;;;;;21.40;13.80;;;9.90;32.30;;;;;;5013928;28;20045;-69
2021/03/22 08:33:26;;;;;;;20.93;13.63;;;9.90;32.30;;;;;;4991579;28;20089;-70
2021/03/22 08:36:17;;;;;;;22.90;13.20;;;10.00;32.50;;;;;;5007974;28;20069;-70
2021/03/22 08:38:51;;;;;;;18.83;13.93;;;10.00;31.50;;;;;;4982636;28;20057;-69
2021/03/22 08:41:30;;;;;;;19.23;13.32;;;10.30;31.40;;;;;;5001738;28;20108;-69
2021/03/22 08:44:24;;;;;;;18.43;12.90;;;10.20;31.80;;;;;;5004659;28;20049;-64
2021/03/22 08:47:07;;;;;;;24.43;14.63;;;10.10;31.80;;;;;;5007331;28;20092;-69
2021/03/22 08:49:36;;;;;;;21.27;13.53;;;9.90;31.20;;;;;;4983877;28;20053;-69
2021/03/22 08:52:03;;;;;;;17.87;12.20;;;9.90;31.80;;;;;;5005492;28;20034;-69
2021/03/22 08:54:32;;;;;;;23.43;13.10;;;10.00;31.80;;;;;;5006776;28;20450;-69
2021/03/22 08:57:25;;;;;;;18.73;13.27;;;9.90;32.10;;;;;;5005289;28;20037;-68
2021/03/22 09:00:28;;;;;;;22.67;13.60;;;10.00;32.20;;;;;;5007561;28;20457;-69
2021/03/22 09:03:04;;;;;;;18.97;14.10;;;9.90;32.30;;;;;;4979599;28;20079;-69
2021/03/22 09:05:33;;;;;;;18.73;14.03;;;10.00;32.20;;;;;;4994136;28;20053;-69
2021/03/22 09:08:18;;;;;;;20.20;13.80;;;9.80;31.90;;;;;;4997770;28;20125;-69
2021/03/22 09:10:45;;;;;;;22.63;14.07;;;9.90;32.20;;;;;;5005731;28;20057;-70
2021/03/22 09:13:29;;;;;;;15.93;12.73;;;9.90;32.10;;;;;;4999494;28;20042;-70
2021/03/22 09:15:57;;;;;;;17.67;12.88;;;10.00;32.70;;;;;;5007769;28;20483;-70
2021/03/22 09:18:23;;;;;;;18.73;12.87;;;10.00;32.00;;;;;;5002478;28;20046;-70
2021/03/22 09:20:49;;;;;;;17.10;12.07;;;10.00;31.50;;;;;;5011925;28;20499;-69
2021/03/22 09:23:39;;;;;;;16.73;12.07;;;9.90;31.10;;;;;;5004798;28;20046;-69
2021/03/22 09:26:07;;;;;;;15.70;11.20;;;10.00;31.20;;;;;;4978846;28;20511;-69
2021/03/22 09:28:35;;;;;;;16.40;11.30;;;10.00;31.30;;;;;;5000328;28;20124;-69
2021/03/22 09:31:03;;;;;;;16.67;11.80;;;10.10;31.10;;;;;;5002729;28;20053;-69
2021/03/22 09:33:52;;;;;;;16.50;11.40;;;10.10;31.40;;;;;;5005339;28;20052;-69
2021/03/22 09:36:40;;;;;;;14.17;10.83;;;10.30;30.80;;;;;;5004053;28;20107;-69
2021/03/22 09:39:26;;;;;;;16.10;12.27;;;10.30;31.30;;;;;;4977505;28;20124;-69
2021/03/22 09:42:04;;;;;;;19.57;11.87;;;10.40;31.20;;;;;;5007528;28;20045;-70
2021/03/22 09:44:34;;;;;;;13.00;10.60;;;10.40;31.00;;;;;;4997896;28;20404;-69
2021/03/22 09:47:20;;;;;;;14.63;10.93;;;10.40;30.40;;;;;;5004989;28;20074;-69
2021/03/22 09:49:58;;;;;;;15.03;10.00;;;10.60;30.70;;;;;;4993527;28;20068;-70
2021/03/22 09:52:37;;;;;;;25.47;12.23;;;10.70;30.10;;;;;;5006205;28;20309;-70
2021/03/22 09:55:25;;;;;;;13.47;9.87;;;10.60;30.60;;;;;;4980672;28;20034;-69
2021/03/22 09:57:52;;;;;;;16.97;11.37;;;10.80;30.30;;;;;;5002546;28;20057;-70
2021/03/22 10:00:47;;;;;;;18.53;10.47;;;10.90;30.50;;;;;;5000890;28;20618;-69
2021/03/22 10:03:30;;;;;;;15.70;10.53;;;10.90;30.10;;;;;;4983465;28;20118;-70
2021/03/22 10:06:04;;;;;;;14.73;9.07;;;11.00;29.70;;;;;;5002302;28;20037;-66
2021/03/22 10:08:39;;;;;;;15.10;9.83;;;11.10;30.00;;;;;;5008510;28;20067;-69
2021/03/22 10:11:36;;;;;;;14.03;9.80;;;11.20;30.50;;;;;;4999189;28;20133;-70
2021/03/22 10:14:04;;;;;;;18.47;9.87;;;11.30;29.70;;;;;;4964492;28;20034;-69
2021/03/22 10:16:36;;;;;;;15.80;10.03;;;11.30;29.40;;;;;;5002459;28;20076;-69
2021/03/22 10:19:21;;;;;;;12.40;8.87;;;11.50;29.50;;;;;;5004295;28;20037;-70
2021/03/22 10:21:53;;;;;;;13.40;9.05;;;11.70;29.50;;;;;;5003797;28;20030;-70
2021/03/22 10:24:54;;;;;;;13.10;8.73;;;11.70;28.70;;;;;;5003508;28;20480;-70
2021/03/22 10:27:20;;;;;;;13.73;8.33;;;11.80;28.50;;;;;;4960867;28;20120;-70
2021/03/22 10:29:45;;;;;;;12.53;8.40;;;11.80;28.40;;;;;;5003832;28;20069;-70
2021/03/22 10:32:11;;;;;;;8.83;7.90;;;11.80;28.10;;;;;;5004887;28;20126;-69
2021/03/22 10:34:40;;;;;;;10.77;7.53;;;11.90;28.30;;;;;;5004262;28;21349;-70
2021/03/22 10:37:18;;;;;;;11.67;6.10;;;12.10;26.60;;;;;;4999295;28;20121;-70
2021/03/22 10:39:47;;;;;;;12.73;7.33;;;12.00;27.00;;;;;;5009015;28;20034;-70
2021/03/22 10:42:37;;;;;;;9.77;6.50;;;12.10;26.60;;;;;;5002507;28;20037;-70
2021/03/22 10:45:24;;;;;;;10.67;6.60;;;12.30;26.90;;;;;;4983218;28;20042;-70
2021/03/22 10:47:55;;;;;;;11.77;6.83;;;12.50;26.80;;;;;;5001406;28;20040;-70
2021/03/22 10:50:30;;;;;;;13.60;7.00;;;12.40;26.20;;;;;;5003137;28;20034;-69
2021/03/22 10:53:14;;;;;;;12.70;7.53;;;12.40;26.00;;;;;;4998018;28;20034;-60
2021/03/22 10:55:41;;;;;;;11.33;6.97;;;12.50;26.20;;;;;;5003471;28;20081;-69
2021/03/22 10:58:14;;;;;;;9.20;5.70;;;12.50;26.80;;;;;;5000987;28;20057;-69
2021/03/22 11:00:45;;;;;;;14.10;5.77;;;12.70;25.60;;;;;;5002070;28;20042;-69
2021/03/22 11:03:19;;;;;;;9.23;5.60;;;12.90;25.40;;;;;;5001962;28;20097;-69
2021/03/22 11:05:45;;;;;;;10.80;5.78;;;12.90;25.10;;;;;;5006162;28;20038;-69
2021/03/22 11:08:31;;;;;;;16.53;8.83;;;13.00;25.70;;;;;;4997830;28;20120;-69
2021/03/22 11:11:03;;;;;;;9.93;6.83;;;13.10;25.30;;;;;;5001557;28;20042;-68
2021/03/22 11:13:32;;;;;;;8.83;6.23;;;13.10;25.40;;;;;;4998176;28;20042;-69
2021/03/22 11:15:58;;;;;;;9.10;5.90;;;13.10;25.30;;;;;;5003104;28;20452;-68
2021/03/22 11:18:25;;;;;;;8.50;5.27;;;13.20;25.50;;;;;;5003531;28;20077;-69
2021/03/22 11:20:53;;;;;;;8.47;5.70;;;13.20;24.90;;;;;;5003935;28;20124;-69
2021/03/22 11:23:30;;;;;;;7.03;4.40;;;13.40;24.00;;;;;;5003842;28;20499;-69
2021/03/22 11:26:25;;;;;;;4.82;3.97;;;13.50;24.30;;;;;;5005726;28;20029;-69
2021/03/22 11:28:52;;;;;;;7.83;4.70;;;13.70;22.80;;;;;;4973316;28;20035;-69
2021/03/22 11:31:29;;;;;;;6.22;3.75;;;13.70;22.80;;;;;;5008668;28;20033;-69
2021/03/22 11:34:02;;;;;;;5.47;2.83;;;13.80;22.60;;;;;;5002560;28;20037;-69
2021/03/22 11:36:41;;;;;;;6.53;3.42;;;13.70;22.60;;;;;;5003480;28;20034;-68
2021/03/22 11:39:12;;;;;;;4.57;3.05;;;14.00;22.20;;;;;;4998491;28;20042;-69
2021/03/22 11:41:39;;;;;;;6.55;3.33;;;14.00;21.90;;;;;;5012917;28;20394;-69
2021/03/22 11:44:14;;;;;;;7.00;3.00;;;14.20;21.00;;;;;;4994194;28;20054;-69
2021/03/22 11:46:42;;;;;;;5.05;3.35;;;14.00;21.90;;;;;;5000991;28;20085;-69
2021/03/22 11:49:29;;;;;;;6.10;3.35;;;14.20;22.00;;;;;;4999649;28;20129;-68
2021/03/22 11:51:54;;;;;;;8.60;3.78;;;14.40;21.10;;;;;;5010846;28;20543;-69
2021/03/22 11:54:20;;;;;;;5.80;4.13;;;14.40;22.20;;;;;;5003484;28;20042;-69
2021/03/22 11:57:05;;;;;;;4.90;3.42;;;14.40;21.60;;;;;;5006397;28;20072;-69
2021/03/22 11:59:31;;;;;;;7.80;4.57;;;14.70;21.20;;;;;;5001155;28;20450;-69
2021/03/22 12:01:59;;;;;;;5.95;4.40;;;15.00;21.40;;;;;;5006811;28;20042;-65
2021/03/22 12:04:26;;;;;;;5.32;4.53;;;14.80;21.70;;;;;;5001641;28;20069;-69
2021/03/22 12:07:01;;;;;;;6.75;4.95;;;14.90;21.70;;;;;;5006104;28;20066;-69
2021/03/22 12:09:29;;;;;;;9.35;4.50;;;15.20;21.60;;;;;;5005177;28;20050;-68
2021/03/22 12:11:55;;;;;;;7.25;5.13;;;15.10;21.20;;;;;;5009846;28;20400;-69
2021/03/22 12:14:21;;;;;;;5.57;4.47;;;15.20;21.80;;;;;;5007888;28;20108;-69
2021/03/22 12:16:48;;;;;;;10.27;5.05;;;15.60;21.70;;;;;;4999013;28;20488;-69
2021/03/22 12:19:27;;;;;;;6.80;4.88;;;15.90;21.20;;;;;;5012230;28;20046;-68
2021/03/22 12:21:53;;;;;;;6.20;4.53;;;16.30;20.70;;;;;;5006965;28;20384;-69
2021/03/22 12:24:19;;;;;;;6.28;4.65;;;17.00;20.00;;;;;;5004770;28;20045;-69
2021/03/22 12:26:45;;;;;;;5.20;4.28;;;24.00;15.10;;;;;;5003514;28;20042;-69
2021/03/22 12:29:11;;;;;;;6.53;4.18;;;24.40;15.20;;;;;;5011057;28;20567;-68
2021/03/22 12:31:45;;;;;;;9.38;5.05;;;27.60;13.50;;;;;;5002798;28;20117;-69
2021/03/22 12:34:17;;;;;;;5.18;4.38;;;30.00;12.20;;;;;;5008867;28;20030;-69
2021/03/22 12:36:43;;;;;;;8.40;5.50;;;31.60;11.20;;;;;;5004494;28;20507;-69
2021/03/22 12:39:32;;;;;;;7.60;5.38;;;30.70;11.70;;;;;;5005554;28;20041;-69
2021/03/22 12:42:09;;;;;;;8.65;5.00;;;29.30;10.70;;;;;;5002818;28;20034;-69
2021/03/22 12:44:34;;;;;;;6.43;5.13;;;27.40;10.70;;;;;;5003743;28;20063;-70
2021/03/22 12:47:00;;;;;;;5.93;4.93;;;26.30;12.30;;;;;;5002287;28;20372;-70
2021/03/22 12:49:26;;;;;;;7.72;5.15;;;27.00;11.80;;;;;;5008770;28;20097;-70
2021/03/22 12:51:52;;;;;;;8.07;5.60;;;28.40;10.80;;;;;;5006325;28;20177;-68
2021/03/22 12:54:18;;;;;;;6.40;5.68;;;29.90;11.10;;;;;;5010417;28;20046;-71
2021/03/22 12:56:44;;;;;;;8.02;5.50;;;29.20;9.70;;;;;;5004326;28;20040;-71
2021/03/22 12:59:39;;;;;;;6.13;5.28;;;30.10;11.40;;;;;;5011154;28;20439;-71
2021/03/22 13:02:33;;;;;;;6.38;5.75;;;31.40;10.10;;;;;;4986312;28;20058;-71
2021/03/22 13:04:58;;;;;;;6.20;5.60;;;32.40;9.40;;;;;;5006737;28;20029;-70
2021/03/22 13:07:24;;;;;;;6.90;5.80;;;32.70;10.40;;;;;;5009747;28;20049;-68
2021/03/22 13:09:50;;;;;;;8.43;5.78;;;34.20;10.40;;;;;;5009292;28;20038;-70
2021/03/22 13:12:25;;;;;;;6.68;5.40;;;34.30;9.10;;;;;;5003842;28;20050;-69
2021/03/22 13:14:53;;;;;;;6.20;5.47;;;35.60;8.70;;;;;;5005866;28;20088;-71
2021/03/22 13:17:21;;;;;;;6.88;5.47;;;35.70;9.10;;;;;;4999890;28;20483;-71
2021/03/22 13:19:46;;;;;;;6.13;5.53;;;36.00;8.10;;;;;;5005579;28;22056;-70
2021/03/22 13:22:19;;;;;;;6.75;5.30;;;36.60;8.60;;;;;;5004795;28;20112;-70